Time;durP1;ratioP1;P1;durP2;ratioP2;P2;SDS_P1;SDS_P2;PMS_P1;PMS_P2;Temp;Humidity;BMP_temperature;BMP_pressure;BME280_temperature;BME280_humidity;BME280_pressure;Samples;Min_cycle;Max_cycle;Signal;HPM_P1;HPM_P2
2022/06/09 00:01:57;;;;;;;21.65;17.55;;;;;;;17.12;100.00;99443.34;4502603;31;20099;-63
2022/06/09 00:04:34;;;;;;;20.98;17.00;;;;;;;17.06;100.00;99443.66;4502425;31;20091;-64
2022/06/09 00:07:09;;;;;;;22.75;15.95;;;;;;;17.07;100.00;99442.75;4502520;31;20110;-63
2022/06/09 00:09:44;;;;;;;17.83;15.88;;;;;;;17.07;100.00;99443.59;4502450;31;20185;-63
2022/06/09 00:12:12;;;;;;;26.27;16.67;;;;;;;17.08;100.00;99447.13;4502414;31;20096;-63
2022/06/09 00:14:41;;;;;;;26.55;18.50;;;;;;;17.02;100.00;99448.28;4502498;31;20122;-63
2022/06/09 00:17:08;;;;;;;22.87;17.92;;;;;;;16.94;100.00;99453.19;4502271;31;20083;-64
2022/06/09 00:19:35;;;;;;;21.65;17.27;;;;;;;16.89;100.00;99457.88;4502326;31;20083;-64
2022/06/09 00:22:03;;;;;;;21.25;17.92;;;;;;;16.85;100.00;99454.50;4487621;31;20111;-63
2022/06/09 00:24:31;;;;;;;23.25;18.55;;;;;;;16.80;100.00;99456.56;4502208;31;20099;-64
2022/06/09 00:26:58;;;;;;;19.17;16.42;;;;;;;16.79;100.00;99448.66;4502115;31;20095;-63
2022/06/09 00:29:25;;;;;;;23.42;18.37;;;;;;;16.84;100.00;99444.81;4502159;31;20106;-64
2022/06/09 00:31:52;;;;;;;17.60;15.75;;;;;;;16.84;100.00;99438.63;4502062;31;20176;-63
2022/06/09 00:34:19;;;;;;;21.12;17.33;;;;;;;16.85;100.00;99437.69;4502287;31;20112;-63
2022/06/09 00:36:47;;;;;;;20.10;14.57;;;;;;;16.89;100.00;99439.25;4502173;31;20429;-64
2022/06/09 00:39:14;;;;;;;20.35;16.02;;;;;;;16.91;100.00;99432.91;4502501;31;20160;-63
2022/06/09 00:41:43;;;;;;;18.08;16.17;;;;;;;16.90;100.00;99436.50;4502101;31;20108;-63
2022/06/09 00:44:23;;;;;;;20.35;16.90;;;;;;;16.88;100.00;99438.38;4502230;31;20167;-63
2022/06/09 00:47:02;;;;;;;19.67;16.30;;;;;;;16.86;100.00;99434.09;4502348;31;20408;-63
2022/06/09 00:49:41;;;;;;;24.15;17.45;;;;;;;16.84;100.00;99441.28;4502136;31;20119;-63
2022/06/09 00:52:10;;;;;;;17.73;15.93;;;;;;;16.83;100.00;99442.25;4502152;31;20108;-63
2022/06/09 00:54:46;;;;;;;24.60;15.68;;;;;;;16.85;100.00;99443.00;4502344;31;20150;-63
2022/06/09 00:57:26;;;;;;;19.83;16.60;;;;;;;16.84;100.00;99438.63;4502026;31;20426;-64
2022/06/09 01:00:03;;;;;;;25.88;16.17;;;;;;;16.84;100.00;99449.28;4502109;31;20095;-63
2022/06/09 01:02:30;;;;;;;23.83;16.97;;;;;;;16.88;100.00;99448.16;4501981;31;20087;-63
2022/06/09 01:05:03;;;;;;;19.62;16.90;;;;;;;16.98;100.00;99446.75;4501848;31;20246;-63
2022/06/09 01:07:35;;;;;;;19.48;16.52;;;;;;;17.05;100.00;99440.16;4502094;31;20076;-63
2022/06/09 01:10:04;;;;;;;18.67;15.10;;;;;;;17.06;100.00;99444.53;4502074;31;20084;-63
2022/06/09 01:12:37;;;;;;;19.30;16.50;;;;;;;17.08;100.00;99439.13;4501975;31;20103;-63
2022/06/09 01:15:20;;;;;;;22.20;15.55;;;;;;;17.12;100.00;99438.03;4502037;31;20467;-64
2022/06/09 01:17:47;;;;;;;17.92;15.13;;;;;;;17.11;100.00;99438.97;4501914;31;20131;-63
2022/06/09 01:20:37;;;;;;;23.10;16.17;;;;;;;17.07;100.00;99435.63;4501850;31;20092;-63
2022/06/09 01:23:16;;;;;;;20.58;15.77;;;;;;;17.08;100.00;99428.50;4501837;31;20140;-64
2022/06/09 01:26:05;;;;;;;21.80;15.57;;;;;;;17.16;100.00;99426.25;4501848;31;20138;-63
2022/06/09 01:29:01;;;;;;;20.65;15.88;;;;;;;17.25;100.00;99422.25;4501977;31;20458;-63
2022/06/09 01:31:47;;;;;;;18.80;16.37;;;;;;;17.27;100.00;99425.69;4468963;31;20127;-63
2022/06/09 01:34:23;;;;;;;19.20;17.20;;;;;;;17.27;100.00;99418.53;4501868;31;20160;-64
2022/06/09 01:37:01;;;;;;;23.48;17.95;;;;;;;17.26;100.00;99423.97;4501995;31;20617;-63
2022/06/09 01:39:50;;;;;;;25.88;18.62;;;;;;;17.21;100.00;99418.91;4501564;31;20079;-63
2022/06/09 01:42:40;;;;;;;24.33;18.73;;;;;;;17.16;100.00;99419.13;4501771;31;20126;-63
2022/06/09 01:45:16;;;;;;;22.00;17.83;;;;;;;17.13;100.00;99426.44;4501752;31;20076;-63
2022/06/09 01:48:06;;;;;;;27.15;19.27;;;;;;;17.07;100.00;99427.63;4501757;31;20087;-63
2022/06/09 01:50:38;;;;;;;27.40;19.52;;;;;;;17.04;100.00;99425.12;4501582;31;20496;-63
2022/06/09 01:53:14;;;;;;;21.40;18.25;;;;;;;17.00;100.00;99428.91;4501852;31;20398;-63
2022/06/09 01:55:53;;;;;;;24.77;18.12;;;;;;;17.00;100.00;99431.56;4501718;31;20163;-63
2022/06/09 01:58:26;;;;;;;27.25;18.83;;;;;;;16.98;100.00;99422.78;4501743;31;20186;-63
2022/06/09 02:00:57;;;;;;;22.48;17.80;;;;;;;16.95;100.00;99428.28;4501932;31;20493;-64
2022/06/09 02:03:30;;;;;;;21.35;17.25;;;;;;;16.96;100.00;99432.66;4501613;31;20083;-64
2022/06/09 02:05:59;;;;;;;19.92;16.87;;;;;;;16.97;100.00;99434.38;4501491;31;20504;-63
2022/06/09 02:08:29;;;;;;;21.12;17.73;;;;;;;16.99;100.00;99434.28;4501584;31;20141;-64
2022/06/09 02:11:00;;;;;;;20.62;17.45;;;;;;;17.01;100.00;99432.44;4501607;31;20107;-63
2022/06/09 02:13:31;;;;;;;25.33;16.30;;;;;;;17.06;100.00;99433.03;4501769;31;20470;-63
2022/06/09 02:16:03;;;;;;;34.65;18.87;;;;;;;17.10;100.00;99424.81;4501440;31;20410;-63
2022/06/09 02:18:35;;;;;;;27.90;20.77;;;;;;;17.23;100.00;99425.00;4501700;31;20439;-63
2022/06/09 02:21:18;;;;;;;24.37;16.60;;;;;;;17.26;100.00;99423.97;4486782;31;20148;-63
2022/06/09 02:23:52;;;;;;;23.40;17.98;;;;;;;17.34;100.00;99422.59;4501570;31;20087;-63
2022/06/09 02:26:20;;;;;;;25.65;17.62;;;;;;;17.41;100.00;99426.62;4501289;31;20118;-64
2022/06/09 02:28:48;;;;;;;23.40;18.62;;;;;;;17.43;100.00;99431.91;4501223;31;20130;-63
2022/06/09 02:31:17;;;;;;;20.08;16.67;;;;;;;17.44;100.00;99431.78;4501524;31;20108;-63
2022/06/09 02:33:45;;;;;;;25.45;19.73;;;;;;;17.49;100.00;99423.56;4501436;31;20102;-64
2022/06/09 02:36:12;;;;;;;22.00;18.48;;;;;;;17.55;100.00;99425.88;4486325;31;20164;-63
2022/06/09 02:38:39;;;;;;;26.83;21.10;;;;;;;17.57;100.00;99426.66;4501249;31;20151;-63
2022/06/09 02:41:06;;;;;;;21.50;17.73;;;;;;;17.53;100.00;99433.09;4501420;31;20533;-64
2022/06/09 02:43:34;;;;;;;32.58;21.98;;;;;;;17.53;100.00;99429.59;4501179;31;20447;-63
2022/06/09 02:46:03;;;;;;;26.48;20.40;;;;;;;17.52;100.00;99434.03;4501162;31;20111;-63
2022/06/09 02:48:30;;;;;;;25.80;21.08;;;;;;;17.51;100.00;99432.31;4501072;31;20096;-64
2022/06/09 02:51:14;;;;;;;20.77;17.33;;;;;;;17.49;100.00;99439.56;4501136;31;20627;-63
2022/06/09 02:53:42;;;;;;;16.02;14.27;;;;;;;17.52;100.00;99442.03;4501296;31;20091;-63
2022/06/09 02:56:09;;;;;;;18.42;15.82;;;;;;;17.55;100.00;99438.34;4501292;31;20164;-64
2022/06/09 02:58:36;;;;;;;26.60;16.73;;;;;;;17.54;100.00;99433.97;4501063;31;20167;-63
2022/06/09 03:01:04;;;;;;;20.23;16.27;;;;;;;17.54;100.00;99432.16;4500996;31;20144;-63
2022/06/09 03:03:31;;;;;;;18.27;16.35;;;;;;;17.53;100.00;99435.78;4500940;31;20092;-64
2022/06/09 03:05:59;;;;;;;19.75;16.95;;;;;;;17.51;100.00;99442.97;4500688;31;20724;-63
2022/06/09 03:08:26;;;;;;;17.67;15.15;;;;;;;17.50;100.00;99443.06;4500867;31;20103;-64
2022/06/09 03:10:53;;;;;;;29.52;18.45;;;;;;;17.49;100.00;99436.87;4485927;31;20080;-63
2022/06/09 03:13:20;;;;;;;21.23;15.30;;;;;;;17.47;100.00;99433.44;4500736;31;20099;-63
2022/06/09 03:15:50;;;;;;;21.52;15.35;;;;;;;17.51;100.00;99440.31;4500847;31;20159;-64
2022/06/09 03:18:18;;;;;;;15.82;13.40;;;;;;;17.55;100.00;99438.34;4500658;31;20198;-63
2022/06/09 03:20:48;;;;;;;18.98;14.70;;;;;;;17.59;100.00;99435.41;4500594;31;20163;-63
2022/06/09 03:23:15;;;;;;;18.50;15.73;;;;;;;17.59;100.00;99435.41;4500629;31;20149;-64
2022/06/09 03:25:43;;;;;;;18.20;16.30;;;;;;;17.61;100.00;99428.19;4500480;31;20100;-63
2022/06/09 03:28:11;;;;;;;19.00;16.95;;;;;;;17.68;100.00;99426.91;4486187;31;20112;-63
2022/06/09 03:30:38;;;;;;;21.55;15.20;;;;;;;17.66;100.00;99427.94;4500325;31;20147;-63
2022/06/09 03:33:06;;;;;;;18.17;16.15;;;;;;;17.71;100.00;99430.34;4500742;31;20464;-63
2022/06/09 03:35:34;;;;;;;22.58;17.35;;;;;;;17.85;100.00;99426.00;4500393;31;20508;-63
2022/06/09 03:38:02;;;;;;;21.50;16.17;;;;;;;17.92;100.00;99427.34;4500442;31;20130;-63
2022/06/09 03:40:30;;;;;;;22.00;15.65;;;;;;;18.00;100.00;99426.91;4500362;31;20107;-63
2022/06/09 03:43:02;;;;;;;17.92;16.05;;;;;;;18.14;100.00;99420.78;4500483;31;20106;-64
2022/06/09 03:45:31;;;;;;;18.00;16.10;;;;;;;18.15;100.00;99425.16;4500383;31;20465;-64
2022/06/09 03:47:59;;;;;;;16.25;14.55;;;;;;;18.09;100.00;99438.84;4500343;31;20100;-64
2022/06/09 03:50:29;;;;;;;16.87;14.35;;;;;;;18.19;100.00;99423.16;4500151;31;20629;-64
2022/06/09 03:52:57;;;;;;;18.27;14.60;;;;;;;18.45;100.00;99427.00;4500530;31;20132;-63
2022/06/09 03:55:24;;;;;;;18.60;14.25;;;;;;;18.60;100.00;99426.06;4501011;31;20088;-63
2022/06/09 03:57:51;;;;;;;15.48;12.32;;;;;;;18.83;100.00;99425.56;4501043;31;20128;-63
2022/06/09 04:00:22;;;;;;;17.62;15.68;;;;;;;18.97;100.00;99431.84;4501162;31;20130;-63
2022/06/09 04:02:50;;;;;;;14.75;13.18;;;;;;;18.85;100.00;99422.78;4499830;31;20079;-64
2022/06/09 04:05:17;;;;;;;17.30;14.23;;;;;;;19.15;100.00;99425.34;4502616;31;20170;-64
2022/06/09 04:07:45;;;;;;;15.88;14.25;;;;;;;18.99;100.00;99428.13;4502846;31;20774;-63
2022/06/09 04:10:18;;;;;;;19.50;16.20;;;;;;;19.06;100.00;99429.47;4503241;31;20134;-63
2022/06/09 04:12:45;;;;;;;16.00;14.30;;;;;;;19.17;100.00;99430.63;4503045;31;20084;-64
2022/06/09 04:15:15;;;;;;;16.90;14.98;;;;;;;19.37;100.00;99434.72;4503230;31;20099;-64
2022/06/09 04:17:44;;;;;;;16.35;14.48;;;;;;;19.46;100.00;99432.28;4502982;31;20100;-63
2022/06/09 04:20:13;;;;;;;15.68;12.50;;;;;;;19.69;100.00;99427.34;4485302;31;20117;-64
2022/06/09 04:22:41;;;;;;;18.05;14.87;;;;;;;19.99;100.00;99425.31;4487173;31;20092;-64
2022/06/09 04:25:16;;;;;;;17.80;16.00;;;;;;;19.84;100.00;99425.47;4481106;31;188019;-63
2022/06/09 04:27:43;;;;;;;19.27;14.55;;;;;;;19.64;100.00;99429.44;4486943;31;20107;-64
2022/06/09 04:30:12;;;;;;;18.52;15.93;;;;;;;19.77;100.00;99438.38;4486972;31;20110;-64
2022/06/09 04:32:39;;;;;;;17.92;15.98;;;;;;;19.98;100.00;99439.66;4487203;31;20083;-63
2022/06/09 04:35:07;;;;;;;19.40;15.75;;;;;;;19.92;100.00;99442.72;4486999;31;20088;-64
2022/06/09 04:40:20;;;;;;;22.67;19.48;;;;;;;19.55;100.00;99444.22;4487109;31;20076;-64
2022/06/09 04:42:48;;;;;;;22.27;17.85;;;;;;;19.57;100.00;99451.16;4487143;31;20115;-64
2022/06/09 04:45:16;;;;;;;20.27;18.12;;;;;;;19.59;100.00;99459.97;4486984;31;20104;-64
2022/06/09 04:47:44;;;;;;;21.60;18.17;;;;;;;19.46;100.00;99461.69;4486630;31;20095;-64
2022/06/09 04:50:12;;;;;;;17.73;15.93;;;;;;;19.45;100.00;99468.00;4486283;31;20088;-64
2022/06/09 04:52:39;;;;;;;22.62;18.35;;;;;;;19.65;100.00;99463.25;4486134;31;20530;-64
2022/06/09 04:55:07;;;;;;;20.92;17.60;;;;;;;19.75;100.00;99467.00;4486053;31;20096;-64
2022/06/09 04:57:34;;;;;;;18.95;16.37;;;;;;;19.66;100.00;99468.47;4495539;31;20099;-64
2022/06/09 05:00:04;;;;;;;21.55;18.17;;;;;;;19.86;100.00;99475.22;4502108;31;20148;-64
2022/06/09 05:02:32;;;;;;;19.92;17.85;;;;;;;19.92;100.00;99464.12;4501699;31;20392;-64
2022/06/09 05:04:59;;;;;;;18.17;16.33;;;;;;;19.99;100.00;99461.91;4501874;31;20088;-64
2022/06/09 05:07:27;;;;;;;24.30;21.80;;;;;;;20.00;100.00;99466.28;4502101;31;20118;-64
2022/06/09 05:09:55;;;;;;;18.87;15.07;;;;;;;20.05;100.00;99464.19;4501672;31;20079;-64
2022/06/09 05:12:22;;;;;;;14.82;13.02;;;;;;;20.19;100.00;99469.47;4501106;31;20092;-64
2022/06/09 05:14:51;;;;;;;14.52;13.02;;;;;;;20.27;100.00;99461.78;4501386;31;20153;-64
2022/06/09 05:17:19;;;;;;;19.95;11.77;;;;;;;20.37;100.00;99456.69;4501686;31;20194;-64
2022/06/09 05:19:48;;;;;;;13.25;11.85;;;;;;;20.46;100.00;99463.22;4501587;31;20154;-64
2022/06/09 05:22:15;;;;;;;12.95;11.65;;;;;;;20.48;100.00;99467.53;4501748;31;20092;-64
2022/06/09 05:24:42;;;;;;;11.35;10.25;;;;;;;20.63;99.49;99467.47;4498567;31;20159;-64
2022/06/09 05:27:11;;;;;;;11.65;10.52;;;;;;;20.95;96.93;99466.16;4494455;31;20099;-64
2022/06/09 05:29:38;;;;;;;15.80;10.80;;;;;;;21.05;95.42;99479.72;4501465;31;20409;-64
2022/06/09 05:32:06;;;;;;;12.57;10.15;;;;;;;20.99;94.79;99477.50;4501251;31;20126;-64
2022/06/09 05:34:34;;;;;;;13.62;9.75;;;;;;;20.83;96.82;99480.38;4501925;31;20100;-64
2022/06/09 05:37:01;;;;;;;10.77;9.23;;;;;;;21.10;93.76;99484.78;4492927;31;20099;-64
2022/06/09 05:45:18;;;;;;;14.55;9.02;;;;;;;21.93;91.32;99494.00;4452349;32;20182;-64
2022/06/09 05:47:45;;;;;;;10.90;9.80;;;;;;;22.43;87.94;99486.75;4488464;31;20160;-64
2022/06/09 05:50:13;;;;;;;10.55;9.55;;;;;;;22.43;89.38;99485.88;4497150;31;20087;-64
2022/06/09 05:52:41;;;;;;;11.40;9.57;;;;;;;22.34;89.07;99491.97;4498204;31;20137;-64
2022/06/09 05:55:08;;;;;;;8.63;7.80;;;;;;;22.26;86.45;99497.03;4485541;31;20173;-64
2022/06/09 05:57:41;;;;;;;9.80;8.20;;;;;;;21.92;82.71;99503.03;4488481;31;20096;-64
2022/06/09 06:00:10;;;;;;;12.18;9.43;;;;;;;22.13;88.32;99491.69;4486298;31;20092;-64
2022/06/09 06:02:38;;;;;;;9.95;7.75;;;;;;;22.09;86.51;99500.94;4500704;31;20087;-64
2022/06/09 06:06:33;;;;;;;14.27;9.23;;;;;;;22.16;85.95;99499.56;4492128;31;20208;-64
2022/06/09 06:07:53;;;;;;;12.88;10.23;;;;;;;22.16;87.76;99496.88;4500841;31;20126;-64
2022/06/09 06:10:20;;;;;;;23.23;12.35;;;;;;;22.17;88.90;99503.94;4501763;31;20087;-64
2022/06/09 06:12:47;;;;;;;14.15;11.32;;;;;;;22.22;87.54;99507.13;4499499;31;20404;-64
2022/06/09 06:15:15;;;;;;;20.80;13.70;;;;;;;22.07;86.88;99508.25;4493354;31;20956;-64
2022/06/09 06:17:42;;;;;;;19.27;13.27;;;;;;;22.03;86.44;99514.81;4500890;31;20117;-64
2022/06/09 06:20:10;;;;;;;18.52;14.23;;;;;;;22.09;86.47;99511.69;4501434;31;20139;-64
2022/06/09 06:22:37;;;;;;;18.00;14.90;;;;;;;22.00;86.48;99515.03;4501148;31;20104;-64
2022/06/09 06:25:06;;;;;;;19.90;16.48;;;;;;;22.26;86.21;99514.00;4489272;31;20157;-64
2022/06/09 06:27:33;;;;;;;24.87;16.75;;;;;;;22.03;83.47;99509.44;4494464;31;20129;-64
2022/06/09 06:30:11;;;;;;;18.35;15.35;;;;;;;21.59;83.53;99502.78;4493175;31;20071;-64
2022/06/09 06:32:39;;;;;;;20.85;14.48;;;;;;;21.64;86.75;99511.34;4494631;31;20117;-64
2022/06/09 06:35:07;;;;;;;18.87;13.48;;;;;;;21.73;87.58;99510.69;4501838;31;20149;-64
2022/06/09 06:37:42;;;;;;;18.80;13.02;;;;;;;21.68;87.71;99510.16;4487113;31;20835;-64
2022/06/09 06:40:11;;;;;;;19.73;13.45;;;;;;;21.53;90.16;99514.81;4501869;31;20083;-64
2022/06/09 06:42:38;;;;;;;17.15;13.18;;;;;;;21.42;92.40;99515.56;4501263;31;20103;-64
2022/06/09 06:45:07;;;;;;;20.70;12.80;;;;;;;21.36;93.51;99510.63;4501412;31;20092;-64
2022/06/09 06:47:34;;;;;;;15.20;11.85;;;;;;;21.38;94.71;99506.03;4501190;31;20159;-64
2022/06/09 06:50:09;;;;;;;15.30;9.65;;;;;;;21.44;93.45;99507.41;4495512;31;20110;-64
2022/06/09 06:52:36;;;;;;;9.82;8.82;;;;;;;21.70;92.89;99509.09;4494502;31;20095;-64
2022/06/09 06:55:05;;;;;;;12.02;8.77;;;;;;;21.92;90.77;99511.06;4485781;31;20104;-64
2022/06/09 06:57:33;;;;;;;8.02;7.22;;;;;;;22.01;90.09;99522.09;4494933;31;20177;-64
2022/06/09 07:00:00;;;;;;;10.65;7.20;;;;;;;22.04;89.63;99517.34;4486865;31;20167;-64
2022/06/09 07:02:28;;;;;;;9.55;7.87;;;;;;;21.79;91.27;99523.66;4501444;31;20510;-63
2022/06/09 07:05:17;;;;;;;8.23;7.43;;;;;;;21.68;92.34;99528.94;4486589;31;20099;-64
2022/06/09 07:07:44;;;;;;;14.00;8.18;;;;;;;21.43;95.04;99535.19;4494508;31;20111;-64
2022/06/09 07:10:13;;;;;;;9.50;7.80;;;;;;;21.21;96.01;99541.16;4499842;31;20159;-64
2022/06/09 07:12:41;;;;;;;15.60;8.43;;;;;;;20.99;97.93;99558.69;4487301;31;20096;-64
2022/06/09 07:15:12;;;;;;;14.95;8.60;;;;;;;20.72;100.00;99533.78;4480942;31;20100;-64
2022/06/09 07:17:39;;;;;;;15.48;9.75;;;;;;;20.50;100.00;99511.13;4501544;31;20111;-63
2022/06/09 07:20:09;;;;;;;26.33;10.40;;;;;;;20.29;100.00;99516.06;4501503;31;20146;-64
2022/06/09 07:22:37;;;;;;;20.27;9.10;;;;;;;20.04;100.00;99524.84;4501393;31;20096;-64
2022/06/09 07:25:05;;;;;;;16.55;9.43;;;;;;;19.98;100.00;99527.03;4500434;31;20131;-64
2022/06/09 07:27:32;;;;;;;15.82;10.70;;;;;;;19.95;100.00;99530.75;4500996;31;20100;-64
2022/06/09 07:30:00;;;;;;;17.30;12.25;;;;;;;20.07;100.00;99534.47;4501168;31;20088;-64
2022/06/09 07:32:28;;;;;;;16.62;9.18;;;;;;;20.36;100.00;99542.41;4500862;31;20079;-64
2022/06/09 07:34:55;;;;;;;9.07;6.90;;;;;;;20.65;100.00;99537.84;4501100;31;20127;-64
2022/06/09 07:37:22;;;;;;;10.73;7.68;;;;;;;20.90;100.00;99529.84;4502009;31;20156;-64
2022/06/09 07:39:50;;;;;;;12.52;6.80;;;;;;;21.15;100.00;99530.84;4494551;31;20084;-64
2022/06/09 07:42:18;;;;;;;9.52;6.97;;;;;;;21.51;99.60;99537.31;4501649;31;20729;-65
2022/06/09 07:44:45;;;;;;;18.02;7.28;;;;;;;21.84;99.45;99540.28;4498843;31;20107;-65
2022/06/09 07:47:12;;;;;;;9.70;5.80;;;;;;;22.09;95.88;99535.81;4485322;31;20155;-64
2022/06/09 07:49:40;;;;;;;9.82;5.20;;;;;;;22.30;93.61;99528.06;4489391;31;20088;-64
2022/06/09 07:52:07;;;;;;;16.00;6.57;;;;;;;22.81;90.58;99525.94;4493794;31;20084;-64
2022/06/09 07:54:34;;;;;;;6.62;4.60;;;;;;;22.47;90.40;99522.25;4489850;31;20096;-64
2022/06/09 07:57:02;;;;;;;3.62;2.95;;;;;;;22.87;88.77;99520.13;4502959;31;20688;-64
2022/06/09 07:59:29;;;;;;;3.78;3.22;;;;;;;23.45;85.77;99516.59;4502790;31;20755;-64
2022/06/09 08:01:57;;;;;;;7.05;2.60;;;;;;;23.87;81.51;99527.63;4502588;31;20148;-64
2022/06/09 08:04:28;;;;;;;2.17;2.08;;;;;;;24.31;78.25;99519.47;4486278;31;20459;-65
2022/06/09 08:06:56;;;;;;;8.43;3.03;;;;;;;24.27;76.13;99512.59;4491179;31;20165;-65
2022/06/09 08:09:23;;;;;;;4.25;2.30;;;;;;;24.71;75.55;99518.84;4493826;31;20111;-65
2022/06/09 08:11:51;;;;;;;2.40;2.20;;;;;;;24.87;74.31;99512.16;4518674;31;20107;-64
2022/06/09 08:14:18;;;;;;;8.85;2.62;;;;;;;25.01;73.94;99514.53;4519079;31;20095;-65
2022/06/09 08:16:52;;;;;;;4.62;2.55;;;;;;;25.09;74.42;99512.03;4501356;31;20095;-65
2022/06/09 08:19:19;;;;;;;6.70;3.00;;;;;;;24.67;75.13;99519.25;4494239;31;20151;-65
2022/06/09 08:21:47;;;;;;;5.80;3.50;;;;;;;24.71;73.87;99520.69;4486984;31;20422;-65
2022/06/09 08:24:20;;;;;;;6.35;3.70;;;;;;;24.63;77.05;99518.66;4494597;31;20119;-65
2022/06/09 08:26:48;;;;;;;7.72;3.50;;;;;;;24.40;76.12;99517.88;4502399;31;20152;-65
2022/06/09 08:29:23;;;;;;;6.80;3.65;;;;;;;24.39;78.09;99518.81;4502682;31;20107;-65
2022/06/09 08:31:50;;;;;;;9.63;3.55;;;;;;;24.50;76.37;99520.66;4502519;31;20932;-65
2022/06/09 08:34:17;;;;;;;6.03;3.75;;;;;;;24.39;78.19;99509.91;4502265;31;20153;-65
2022/06/09 08:36:45;;;;;;;4.37;3.97;;;;;;;24.08;76.91;99512.41;4502023;31;20159;-65
2022/06/09 08:39:12;;;;;;;5.65;3.55;;;;;;;24.04;77.72;99516.34;4502559;31;20080;-65
2022/06/09 08:41:52;;;;;;;4.55;3.15;;;;;;;23.90;77.71;99528.22;4502503;31;20091;-65
2022/06/09 08:45:02;;;;;;;8.45;3.20;;;;;;;24.05;77.22;99520.72;4501885;31;20114;-64
2022/06/09 08:47:34;;;;;;;11.00;4.15;;;;;;;24.39;77.83;99512.59;4497217;31;20487;-65
2022/06/09 08:50:11;;;;;;;8.07;3.30;;;;;;;24.53;76.96;99513.16;4487662;31;20151;-65
2022/06/09 08:52:56;;;;;;;3.62;3.33;;;;;;;24.56;74.96;99514.75;4497495;31;20107;-65
2022/06/09 08:56:03;;;;;;;3.55;3.25;;;;;;;24.32;75.32;99515.78;4500206;31;20092;-65
2022/06/09 08:58:39;;;;;;;11.57;2.95;;;;;;;24.56;75.32;99512.91;4442726;32;20198;-65
2022/06/09 09:01:09;;;;;;;4.00;2.78;;;;;;;24.80;73.76;99504.56;4481527;31;20105;-65
2022/06/09 09:03:46;;;;;;;3.20;2.90;;;;;;;25.04;71.46;99506.16;4485328;31;20096;-65
2022/06/09 09:06:33;;;;;;;3.12;2.83;;;;;;;24.65;74.03;99505.03;4491098;31;20092;-65
2022/06/09 09:09:16;;;;;;;3.45;2.10;;;;;;;25.01;72.35;99499.19;4492207;31;20133;-65
2022/06/09 09:11:52;;;;;;;7.05;2.60;;;;;;;25.38;68.40;99495.19;4501178;31;20103;-65
2022/06/09 09:15:07;;;;;;;10.20;3.08;;;;;;;25.56;66.30;99495.44;4491511;31;20571;-65
2022/06/09 09:17:50;;;;;;;5.75;2.30;;;;;;;25.63;66.38;99485.78;4480132;31;20108;-65
2022/06/09 09:20:34;;;;;;;3.42;2.17;;;;;;;25.47;67.26;99491.69;4493742;31;20168;-65
2022/06/09 09:23:13;;;;;;;3.53;2.30;;;;;;;25.35;64.47;99487.38;4501107;31;20151;-65
2022/06/09 09:26:22;;;;;;;1.55;1.45;;;;;;;25.62;65.94;99484.94;4501739;31;20151;-65
2022/06/09 09:29:08;;;;;;;4.00;2.40;;;;;;;26.08;62.99;99480.84;4479241;31;20099;-65
2022/06/09 09:31:54;;;;;;;4.47;2.67;;;;;;;25.92;64.81;99477.81;4497382;31;20164;-65
2022/06/09 09:34:29;;;;;;;2.20;2.00;;;;;;;26.07;63.99;99475.56;4492696;31;20088;-65
2022/06/09 09:37:01;;;;;;;4.45;2.40;;;;;;;26.00;63.40;99477.97;4487667;31;20088;-65
2022/06/09 09:39:52;;;;;;;3.20;2.75;;;;;;;26.09;64.39;99482.53;4502350;31;20083;-65
2022/06/09 09:42:24;;;;;;;2.45;2.33;;;;;;;25.74;64.53;99481.13;4502307;31;20091;-65
2022/06/09 09:45:30;;;;;;;3.62;3.25;;;;;;;25.71;65.54;99481.41;4501234;31;20387;-65
2022/06/09 09:48:00;;;;;;;7.32;2.75;;;;;;;26.12;65.09;99484.13;4486204;31;20156;-64
2022/06/09 09:50:32;;;;;;;7.10;2.65;;;;;;;26.59;62.50;99478.91;4486275;31;20080;-64
2022/06/09 09:53:19;;;;;;;3.53;3.22;;;;;;;27.59;60.35;99481.97;4486573;31;20163;-65
2022/06/09 09:55:54;;;;;;;4.15;2.90;;;;;;;27.04;57.61;99478.31;4497567;31;20206;-64
2022/06/09 09:58:39;;;;;;;4.20;3.80;;;;;;;26.83;58.74;99479.31;4501803;31;20095;-65
2022/06/09 10:01:32;;;;;;;3.70;3.40;;;;;;;25.53;61.44;99469.56;4501965;31;20119;-64
2022/06/09 10:10:28;;;;;;;7.20;4.18;;;;;;;26.85;58.29;99454.84;4502351;31;20483;-64
2022/06/09 10:13:16;;;;;;;4.70;4.00;;;;;;;27.72;58.07;99451.03;4501897;31;20115;-64
2022/06/09 10:16:03;;;;;;;12.13;4.37;;;;;;;28.18;55.45;99450.03;4502452;31;20103;-65
2022/06/09 10:18:30;;;;;;;5.65;3.83;;;;;;;28.10;55.38;99448.09;4501705;31;20429;-65
2022/06/09 10:21:15;;;;;;;6.62;3.75;;;;;;;27.85;54.13;99446.13;4493440;31;20075;-65
2022/06/09 10:23:53;;;;;;;4.20;3.40;;;;;;;27.61;56.98;99444.81;4502151;31;20096;-66
2022/06/09 10:26:24;;;;;;;3.47;3.22;;;;;;;28.06;57.42;99449.41;4501645;31;20136;-66
2022/06/09 10:29:00;;;;;;;4.57;3.70;;;;;;;28.15;55.24;99438.66;4501148;31;20114;-66
2022/06/09 10:31:42;;;;;;;3.47;3.17;;;;;;;27.90;57.06;99451.94;4494809;31;20100;-65
2022/06/09 10:34:44;;;;;;;3.20;2.90;;;;;;;27.87;57.77;99454.94;4501328;31;20108;-65
2022/06/09 10:37:35;;;;;;;5.18;4.10;;;;;;;27.58;57.95;99453.22;4494743;31;20103;-65
2022/06/09 10:40:18;;;;;;;8.30;3.75;;;;;;;27.32;57.90;99444.94;4495205;31;20091;-65
2022/06/09 10:42:49;;;;;;;3.60;3.33;;;;;;;27.14;59.39;99435.91;4482549;31;20113;-65
2022/06/09 10:46:03;;;;;;;4.70;3.10;;;;;;;26.74;58.97;99428.84;4496469;31;20491;-65
2022/06/09 10:57:40;;;;;;;3.03;2.78;;;;;;;30.61;47.70;99406.37;4483359;31;20126;-65
2022/06/09 11:00:23;;;;;;;4.15;3.78;;;;;;;30.79;46.83;99406.22;4486737;31;20456;-66
2022/06/09 11:02:56;;;;;;;6.62;3.95;;;;;;;31.01;46.17;99408.22;4499039;31;20550;-65
2022/06/09 11:05:50;;;;;;;6.03;3.47;;;;;;;30.66;46.56;99412.16;4500534;31;20088;-65
2022/06/09 11:08:35;;;;;;;4.07;3.17;;;;;;;29.97;47.69;99404.28;4499460;31;20083;-65
2022/06/09 11:11:34;;;;;;;4.12;3.80;;;;;;;28.64;50.91;99401.19;4499442;31;20536;-65
2022/06/09 11:14:19;;;;;;;5.95;3.20;;;;;;;27.94;52.21;99409.16;4500720;31;20137;-65
2022/06/09 11:17:18;;;;;;;3.40;3.10;;;;;;;27.54;56.42;99402.25;4500835;31;20159;-65
2022/06/09 11:20:15;;;;;;;5.30;3.65;;;;;;;27.21;55.43;99399.16;4500252;31;20099;-65
2022/06/09 11:23:00;;;;;;;5.35;4.15;;;;;;;26.14;56.27;99382.22;4441141;31;20112;-65
2022/06/09 11:25:43;;;;;;;4.72;3.85;;;;;;;25.28;59.65;99379.19;4485925;31;20080;-65
2022/06/09 11:28:28;;;;;;;3.92;3.62;;;;;;;24.97;61.88;99373.78;4499061;31;20148;-65
2022/06/09 11:31:24;;;;;;;16.00;3.92;;;;;;;24.54;63.01;99374.81;4498793;31;20096;-65
2022/06/09 11:34:13;;;;;;;5.05;3.87;;;;;;;24.10;64.98;99378.59;4480935;31;20452;-65
2022/06/09 11:36:59;;;;;;;10.18;4.72;;;;;;;23.48;68.45;99368.47;4492740;31;20140;-64
2022/06/09 11:39:45;;;;;;;5.25;4.43;;;;;;;22.94;70.68;99380.00;4503152;31;20132;-64
2022/06/09 11:42:15;;;;;;;15.45;6.80;;;;;;;22.31;77.63;99384.84;4502221;31;20087;-63
2022/06/09 11:47:30;;;;;;;75.07;13.90;;;;;;;-145.40;100.00;59118.41;4376792;31;1046194;-69
2022/06/09 12:29:43;;;;;;;40.10;17.48;;;;;;;-145.40;100.00;59118.41;4240075;31;1046864;-76
2022/06/09 12:32:13;;;;;;;4.37;3.80;;;;;;;-145.40;100.00;59118.41;3807616;31;1053194;-63
2022/06/09 12:34:51;;;;;;;3.33;3.03;;;;;;;-145.40;100.00;59118.41;4111769;31;1046337;-63
2022/06/09 13:45:04;;;;;;;2.37;2.17;;;;;;;21.44;89.14;99400.19;4389894;31;1045751;-63
2022/06/09 13:47:34;;;;;;;4.60;1.70;;;;;;;21.44;89.14;99400.19;4495010;31;20193;-62
2022/06/09 13:58:46;;;;;;;8.88;2.33;;;;;;;-145.40;100.00;59118.41;4472584;31;1046036;-62
2022/06/09 14:04:33;;;;;;;1.87;1.77;;;;;;;29.86;100.00;99384.69;4485705;31;115897;-62
2022/06/09 14:33:32;;;;;;;2.05;1.83;;;;;;;29.86;100.00;99384.69;4487769;31;20130;-62
2022/06/09 15:21:35;;;;;;;2.55;2.35;;;;;;;29.86;100.00;99384.69;4504119;31;20400;-63
2022/06/09 15:38:07;;;;;;;3.58;3.28;;;;;;;29.86;100.00;99384.69;4244146;31;1046626;-64
2022/06/09 15:40:38;;;;;;;4.93;2.47;;;;;;;29.86;100.00;99384.69;4483430;31;20088;-64